LCPH

Paphos International Airport

Paphos, Cyprus
TAF LCPH 160530Z 1606/1706 15008KT 9999 SCT020 BKN045 TEMPO 1606/1621 5000 SHRA PROB30 TEMPO 1606/1617 VRB20G30KT 3000 TSRA BKN018CB BECMG 1608/1612 27016KT BECMG 1616/1619 32008KT
Issued Valid From Valid To
Feb-16 @ 05:30 UTC
(6 hours ago)
Feb-16 @ 06:00 UTC
(5 hours ago)
Feb-17 @ 06:00 UTC
(in 19 hours)
Expired Click to View Feb-16 @ 06:00 to Feb-16 @ 08:00
TAF LCPH 160530Z 1606/1706 15008KT 9999 SCT020 BKN045
Wind Visibility Clouds
150° at 8 knots 10,000+ meters
  • Scattered at 2,000' AGL
  • Broken at 4,500' AGL
Temporary  (Probability 30%) Feb-16 @ 06:00 to Feb-16 @ 17:00
PROB30 TEMPO 1606/1617 VRB20G30KT 3000 TSRA BKN018CB
Wind Visibility Clouds Conditions
Variable at 20 knots
 Gusting to 30 knots
2,993 meters
  • Broken at 1,800' AGL
  • Thunderstorm
  • Rain
Temporary Feb-16 @ 06:00 to Feb-16 @ 21:00
TEMPO 1606/1621 5000 SHRA
Visibility Conditions
5,005 meters
  • Rain
Becoming Feb-16 @ 08:00 to Feb-16 @ 16:00
BECMG 1608/1612 27016KT
Wind Visibility Clouds
270° at 16 knots 10,000+ meters
  • Scattered at 2,000' AGL
  • Broken at 4,500' AGL
Becoming Feb-16 @ 16:00 to Feb-17 @ 06:00
BECMG 1616/1619 32008KT
Wind Visibility Clouds
320° at 8 knots 10,000+ meters
  • Scattered at 2,000' AGL
  • Broken at 4,500' AGL
TAF LCPH 160530Z 1606/1706 15008KT 9999 SCT020 BKN045 TEMPO 1606/1621 5000 SHRA PROB30 TEMPO 1606/1617 VRB20G30KT 3000 TSRA BKN018CB BECMG 1608/1612 27016KT BECMG 1616/1619 32008KT
Issued Feb-16 @ 05:30 UTC
(6 hours ago)
Valid From Feb-16 @ 06:00 UTC
(5 hours ago)
Valid To Feb-17 @ 06:00 UTC
(in 19 hours)
Feb-16 @ 06:00 - Feb-16 @ 08:00
Wind Visibility
150° at 8 knots 10,000+ meters
Clouds
  • Scattered at 2,000' AGL
  • Broken at 4,500' AGL
Probability 30% Temporary Feb-16 @ 06:00 - Feb-16 @ 17:00
Wind Visibility
Variable at 20 knots
 Gusting to 30 knots
2,993 meters
Clouds
  • Broken at 1,800' AGL
Conditions
  • Thunderstorm
  • Rain
Temporary Feb-16 @ 06:00 - Feb-16 @ 21:00
Conditions
  • Rain
Becoming Feb-16 @ 08:00 - Feb-16 @ 16:00
Wind Visibility
270° at 16 knots 10,000+ meters
Clouds
  • Scattered at 2,000' AGL
  • Broken at 4,500' AGL
Becoming Feb-16 @ 16:00 - Feb-17 @ 06:00
Wind Visibility
320° at 8 knots 10,000+ meters
Clouds
  • Scattered at 2,000' AGL
  • Broken at 4,500' AGL